Cap Roca — A8QT9 — position and weather

sailwx.info

Track history (hours):
 
Tides and Currents Weather Stations Pressure Air Temp Water Temp Dewpoint Dewpoint Depression Visibility Wind Speed Wind Dir Waves Ship Positions

Cap Roca

Last reported at 2018-Jun-18 08:01 UTC. Time now 2018-Jun-23 06:31 UTC.
Position N 25°31' W 079°39'.

Length 225 m; draft 10.8 m.

Type: Ship. MMSI: 636017350.

Date/timePositionNaut miles runAvg speedWind from/ knotsBaromVisibWave heightAir tempDewpointWater temp
2018-Jun-18 08:01N 25°31' W 079°39'114.8
2018-Jun-18 07:56N 25°32' W 079°40'614.7
2018-Jun-18 07:30N 25°38' W 079°41'714.5
2018-Jun-18 07:00N 25°46' W 079°42'714.3
2018-Jun-18 06:30N 25°52' W 079°47'714.6
2018-Jun-18 06:00N 25°57' W 079°52'714.6
2018-Jun-18 05:30N 26°01' W 079°59'713.5
2018-Jun-18 05:00N 26°05' W 080°05'2 3.6
2018-Jun-18 04:30N 26°05' W 080°07'0 0.7
2018-Jun-18 03:52N 26°04' W 080°07'0 0.0
2018-Jun-18 03:25N 26°04' W 080°07'0 0.0
2018-Jun-18 02:55N 26°04' W 080°07'0 0.0
2018-Jun-18 02:25N 26°04' W 080°07'0 0.0
2018-Jun-18 01:58N 26°04' W 080°07'0 0.0
2018-Jun-18 01:28N 26°04' W 080°07'0 0.0
2018-Jun-18 00:58N 26°04' W 080°07'0 0.0
2018-Jun-18 00:28N 26°04' W 080°07'0 0.0
2018-Jun-17 23:58N 26°04' W 080°07'0 0.0
2018-Jun-17 23:28N 26°04' W 080°07'0 0.0
2018-Jun-17 22:58N 26°04' W 080°07'0 0.0
2018-Jun-17 22:28N 26°04' W 080°07'0 0.0
2018-Jun-17 21:58N 26°04' W 080°07'0 0.0
2018-Jun-17 21:13N 26°04' W 080°07'0 0.0
2018-Jun-17 20:52N 26°04' W 080°07'0 0.0
2018-Jun-17 20:28N 26°04' W 080°07'0 0.0
2018-Jun-17 19:49N 26°04' W 080°07'0 0.0
2018-Jun-17 19:22N 26°04' W 080°07'0 0.3
2018-Jun-17 19:00N 26°04' W 080°07'1 2.7
2018-Jun-17 18:30N 26°06' W 080°06'3 6.8
2018-Jun-17 18:00N 26°06' W 080°03'0 0.6
2018-Jun-17 17:31N 26°06' W 080°02'1 2.7
2018-Jun-17 17:00N 26°06' W 080°01'2 3.8
2018-Jun-17 16:31N 26°07' W 079°60'2 4.1
2018-Jun-17 16:01N 26°09' W 079°58'2 3.3
2018-Jun-17 15:31N 26°10' W 079°57'1 1.3
2018-Jun-17 15:00N 26°09' W 079°57'0 0.9
2018-Jun-17 14:30N 26°09' W 079°57'0 0.9
2018-Jun-17 14:01N 26°09' W 079°57'3 5.6
2018-Jun-17 13:31N 26°12' W 079°56'612.6
2018-Jun-17 13:00N 26°18' W 079°55'612.7
2018-Jun-17 12:31N 26°25' W 079°55'612.2
2018-Jun-17 12:00N 26°31' W 079°55'611.4
2018-Jun-17 11:31N 26°36' W 079°55'611.5
2018-Jun-17 11:00N 26°42' W 079°55'611.5
2018-Jun-17 10:28N 26°48' W 079°55'511.2
2018-Jun-17 10:00N 26°53' W 079°56'4 7.7
2018-Jun-17 09:30N 26°57' W 079°54'2 4.8
2018-Jun-17 09:00N 26°58' W 079°56'611.1
2018-Jun-17 08:30N 27°04' W 079°56'1812.0
2018-Jun-17 07:02N 27°21' W 079°58'012.3
2018-Jun-17 07:00N 27°22' W 079°58'612.3
2018-Jun-17 06:30N 27°28' W 079°58'612.1
2018-Jun-17 06:00N 27°34' W 079°59'26214.0
2018-Jun-16 11:15N 31°55' W 080°34'416.0
2018-Jun-16 11:00N 31°56' W 080°38'612.5
2018-Jun-16 10:30N 31°59' W 080°45'713.3
2018-Jun-16 10:00N 32°02' W 080°51'611.8
2018-Jun-16 09:29N 32°04' W 080°58'5 9.8
2018-Jun-16 08:59N 32°05' W 081°04'4 7.6
2018-Jun-16 08:25N 32°07' W 081°08'0 0.3
2018-Jun-16 07:59N 32°07' W 081°08'0 0.2
2018-Jun-16 07:07N 32°07' W 081°08'0 0.0
2018-Jun-16 06:55N 32°07' W 081°08'0 0.0
2018-Jun-16 06:27N 32°07' W 081°08'0 0.0
2018-Jun-16 05:37N 32°07' W 081°08'0 0.0
2018-Jun-16 05:27N 32°07' W 081°08'0 0.0
2018-Jun-16 04:49N 32°07' W 081°08'0 0.0
2018-Jun-16 00:25N 32°07' W 081°08'0 0.0
2018-Jun-15 23:57N 32°07' W 081°08'0 0.0
2018-Jun-15 22:58N 32°07' W 081°08'0 0.0
2018-Jun-15 21:37N 32°07' W 081°08'0 0.0
2018-Jun-15 21:30N 32°07' W 081°08'1 2.1
2018-Jun-15 21:00N 32°06' W 081°07'3 6.0
2018-Jun-15 20:30N 32°05' W 081°04'3 6.9
2018-Jun-15 20:00N 32°06' W 081°00'4 8.3
2018-Jun-15 19:30N 32°04' W 080°57'4 8.6
2018-Jun-15 19:00N 32°02' W 080°52'612.2
2018-Jun-15 18:30N 31°59' W 080°46'610.6
2018-Jun-15 17:59N 31°57' W 080°40'4 8.9
2018-Jun-15 17:29N 31°55' W 080°35'4 7.3
2018-Jun-15 17:00N 31°53' W 080°31'611.0
2018-Jun-15 16:29N 31°55' W 080°25'612.2
2018-Jun-15 16:00N 31°58' W 080°19'814.1
2018-Jun-15 15:25N 32°01' W 080°10'54915.7
2018-Jun-14 04:27N 39°37' W 073°53'817.5
2018-Jun-14 03:59N 39°45' W 073°51'4217.3
2018-Jun-14 01:35N 40°27' W 073°49'1 9.1
2018-Jun-14 01:27N 40°27' W 073°51'715.8
2018-Jun-14 01:00N 40°31' W 073°59'713.8
2018-Jun-14 00:30N 40°37' W 074°03'3 6.9
2018-Jun-14 00:00N 40°39' W 074°07'2 4.8
2018-Jun-13 23:30N 40°39' W 074°10'1 2.2
2018-Jun-13 22:59N 40°39' W 074°11'0 0.0
2018-Jun-13 22:27N 40°39' W 074°11'0 0.0
2018-Jun-13 21:59N 40°39' W 074°11'0 0.0
2018-Jun-13 21:29N 40°39' W 074°11'0 0.0
2018-Jun-13 20:59N 40°39' W 074°11'0 0.0
2018-Jun-13 20:27N 40°39' W 074°11'0 0.0
2018-Jun-13 19:59N 40°39' W 074°11'0 0.0
2018-Jun-13 19:29N 40°39' W 074°11'0 0.0
2018-Jun-13 18:57N 40°39' W 074°11'0 0.0
2018-Jun-13 18:29N 40°39' W 074°11'0 0.0
2018-Jun-13 17:59N 40°39' W 074°11'0 0.0
2018-Jun-13 17:29N 40°39' W 074°11'0 0.0
2018-Jun-13 16:57N 40°39' W 074°11'0 0.0
2018-Jun-13 16:29N 40°39' W 074°11'0 0.0
2018-Jun-13 15:59N 40°39' W 074°11'0 0.0
2018-Jun-13 15:29N 40°39' W 074°11'0 0.0
2018-Jun-13 14:53N 40°39' W 074°11'0 0.0
2018-Jun-13 14:29N 40°39' W 074°11'0 0.0
2018-Jun-13 13:47N 40°39' W 074°11'0 0.0
2018-Jun-13 13:27N 40°39' W 074°11'0 0.0
2018-Jun-13 12:59N 40°39' W 074°11'0 0.0
2018-Jun-13 12:29N 40°39' W 074°11'0 0.0
2018-Jun-13 11:59N 40°39' W 074°11'0 0.0
2018-Jun-13 11:29N 40°39' W 074°11'0 0.0
2018-Jun-13 10:59N 40°39' W 074°11'1 1.4
2018-Jun-13 10:30N 40°39' W 074°10'4 7.5
2018-Jun-13 10:00N 40°39' W 074°05'4 8.1
2018-Jun-13 09:30N 40°36' W 074°02'511.0
2018-Jun-13 09:00N 40°31' W 073°59'611.3
2018-Jun-13 08:30N 40°28' W 073°52'3811.4
2018-Jun-13 05:11N 39°52' W 073°42'615.2
2018-Jun-13 04:49N 39°46' W 073°42'813.6
2018-Jun-13 04:14N 39°39' W 073°46'415.3
2018-Jun-13 03:58N 39°36' W 073°50'715.3
2018-Jun-13 03:29N 39°30' W 073°55'1715.5
2018-Jun-13 02:22N 39°16' W 074°08'615.7
2018-Jun-13 02:00N 39°11' W 074°12'3015.5
2018-Jun-13 00:03N 38°46' W 074°34'115.3
2018-Jun-12 23:58N 38°46' W 074°36'715.3
2018-Jun-12 23:30N 38°46' W 074°45'715.0
2018-Jun-12 23:00N 38°46' W 074°55'713.4
2018-Jun-12 22:30N 38°48' W 075°03'4 8.5
2018-Jun-12 22:00N 38°52' W 075°05'714.1
2018-Jun-12 21:29N 38°59' W 075°08'714.7
2018-Jun-12 21:01N 39°05' W 075°11'714.1
2018-Jun-12 20:30N 39°11' W 075°16'917.9
2018-Jun-12 20:00N 39°18' W 075°23'918.9
2018-Jun-12 19:30N 39°25' W 075°31'816.3
2018-Jun-12 19:00N 39°33' W 075°33'612.1
2018-Jun-12 18:31N 39°40' W 075°33'611.9
2018-Jun-12 18:00N 39°45' W 075°29'611.6
2018-Jun-12 17:30N 39°49' W 075°24'510.3
2018-Jun-12 17:00N 39°51' W 075°18'4 8.5
2018-Jun-12 16:30N 39°52' W 075°12'4 7.5
2018-Jun-12 16:00N 39°54' W 075°08'0 0.4
2018-Jun-12 15:29N 39°54' W 075°08'0 0.0
2018-Jun-12 14:57N 39°54' W 075°08'0 0.0
2018-Jun-12 14:27N 39°54' W 075°08'0 0.0
2018-Jun-12 13:59N 39°54' W 075°08'0 0.0
2018-Jun-12 13:29N 39°54' W 075°08'0 0.0
2018-Jun-12 12:59N 39°54' W 075°08'0 0.0
2018-Jun-12 12:29N 39°54' W 075°08'0 0.0
2018-Jun-12 11:58N 39°54' W 075°08'0 0.0
2018-Jun-12 11:29N 39°54' W 075°08'0 0.0
2018-Jun-12 10:58N 39°54' W 075°08'0 0.0
2018-Jun-12 10:29N 39°54' W 075°08'0 0.0
2018-Jun-12 09:59N 39°54' W 075°08'0 0.0
2018-Jun-12 09:28N 39°54' W 075°08'0 0.0
2018-Jun-12 08:58N 39°54' W 075°08'0 0.0
2018-Jun-12 08:28N 39°54' W 075°08'0 0.0
2018-Jun-12 07:59N 39°54' W 075°08'0 0.0
2018-Jun-12 07:29N 39°54' W 075°08'0 0.0
2018-Jun-12 06:58N 39°54' W 075°08'0 0.0
2018-Jun-12 06:28N 39°54' W 075°08'0 0.0
2018-Jun-12 05:58N 39°54' W 075°08'0 0.0
2018-Jun-12 05:28N 39°54' W 075°08'0 0.0
2018-Jun-12 04:59N 39°54' W 075°08'0 0.0
2018-Jun-12 04:30N 39°54' W 075°08'1 2.8
2018-Jun-12 04:00N 39°53' W 075°09'3 6.7
2018-Jun-12 03:30N 39°52' W 075°13'4 7.5
2018-Jun-12 03:00N 39°51' W 075°18'4 8.5
2018-Jun-12 02:30N 39°49' W 075°23'4 8.6
2018-Jun-12 02:00N 39°47' W 075°28'510.1
2018-Jun-12 01:30N 39°42' W 075°31'611.9
2018-Jun-12 01:00N 39°37' W 075°35'612.2
2018-Jun-12 00:30N 39°31' W 075°33'612.4
2018-Jun-12 00:01N 39°25' W 075°31'714.6
2018-Jun-11 23:30N 39°20' W 075°25'816.8
2018-Jun-11 23:00N 39°14' W 075°18'816.5
2018-Jun-11 22:30N 39°07' W 075°12'1417.8
2018-Jun-11 21:43N 38°54' W 075°05'417.5
2018-Jun-11 21:30N 38°50' W 075°04'5 8.6
2018-Jun-11 20:58N 38°46' W 075°00'  
Track history (hours):
 
Tides and Currents Weather Stations Pressure Air Temp Water Temp Dewpoint Dewpoint Depression Visibility Wind Speed Wind Dir Waves Ship Positions

Cap Roca

Last reported at 2018-Jun-18 08:01 UTC. Time now 2018-Jun-23 06:31 UTC.
Position N 25°31' W 079°39'.

Length 225 m; draft 10.8 m.

Type: Ship. MMSI: 636017350.

Date/timePositionNaut miles runAvg speedWind from/ knotsBaromVisibWave heightAir tempDewpointWater temp
2018-Jun-18 08:01N 25°31' W 079°39'114.8
2018-Jun-18 07:56N 25°32' W 079°40'614.7
2018-Jun-18 07:30N 25°38' W 079°41'714.5
2018-Jun-18 07:00N 25°46' W 079°42'714.3
2018-Jun-18 06:30N 25°52' W 079°47'714.6
2018-Jun-18 06:00N 25°57' W 079°52'714.6
2018-Jun-18 05:30N 26°01' W 079°59'713.5
2018-Jun-18 05:00N 26°05' W 080°05'2 3.6
2018-Jun-18 04:30N 26°05' W 080°07'0 0.7
2018-Jun-18 03:52N 26°04' W 080°07'0 0.0
2018-Jun-18 03:25N 26°04' W 080°07'0 0.0
2018-Jun-18 02:55N 26°04' W 080°07'0 0.0
2018-Jun-18 02:25N 26°04' W 080°07'0 0.0
2018-Jun-18 01:58N 26°04' W 080°07'0 0.0
2018-Jun-18 01:28N 26°04' W 080°07'0 0.0
2018-Jun-18 00:58N 26°04' W 080°07'0 0.0
2018-Jun-18 00:28N 26°04' W 080°07'0 0.0
2018-Jun-17 23:58N 26°04' W 080°07'0 0.0
2018-Jun-17 23:28N 26°04' W 080°07'0 0.0
2018-Jun-17 22:58N 26°04' W 080°07'0 0.0
2018-Jun-17 22:28N 26°04' W 080°07'0 0.0
2018-Jun-17 21:58N 26°04' W 080°07'0 0.0
2018-Jun-17 21:13N 26°04' W 080°07'0 0.0
2018-Jun-17 20:52N 26°04' W 080°07'0 0.0
2018-Jun-17 20:28N 26°04' W 080°07'0 0.0
2018-Jun-17 19:49N 26°04' W 080°07'0 0.0
2018-Jun-17 19:22N 26°04' W 080°07'0 0.3
2018-Jun-17 19:00N 26°04' W 080°07'1 2.7
2018-Jun-17 18:30N 26°06' W 080°06'3 6.8
2018-Jun-17 18:00N 26°06' W 080°03'0 0.6
2018-Jun-17 17:31N 26°06' W 080°02'1 2.7
2018-Jun-17 17:00N 26°06' W 080°01'2 3.8
2018-Jun-17 16:31N 26°07' W 079°60'2 4.1
2018-Jun-17 16:01N 26°09' W 079°58'2 3.3
2018-Jun-17 15:31N 26°10' W 079°57'1 1.3
2018-Jun-17 15:00N 26°09' W 079°57'0 0.9
2018-Jun-17 14:30N 26°09' W 079°57'0 0.9
2018-Jun-17 14:01N 26°09' W 079°57'3 5.6
2018-Jun-17 13:31N 26°12' W 079°56'612.6
2018-Jun-17 13:00N 26°18' W 079°55'612.7
2018-Jun-17 12:31N 26°25' W 079°55'612.2
2018-Jun-17 12:00N 26°31' W 079°55'611.4
2018-Jun-17 11:31N 26°36' W 079°55'611.5
2018-Jun-17 11:00N 26°42' W 079°55'611.5
2018-Jun-17 10:28N 26°48' W 079°55'511.2
2018-Jun-17 10:00N 26°53' W 079°56'4 7.7
2018-Jun-17 09:30N 26°57' W 079°54'2 4.8
2018-Jun-17 09:00N 26°58' W 079°56'611.1
2018-Jun-17 08:30N 27°04' W 079°56'1812.0
2018-Jun-17 07:02N 27°21' W 079°58'012.3
2018-Jun-17 07:00N 27°22' W 079°58'612.3
2018-Jun-17 06:30N 27°28' W 079°58'612.1
2018-Jun-17 06:00N 27°34' W 079°59'26214.0
2018-Jun-16 11:15N 31°55' W 080°34'416.0
2018-Jun-16 11:00N 31°56' W 080°38'612.5
2018-Jun-16 10:30N 31°59' W 080°45'713.3
2018-Jun-16 10:00N 32°02' W 080°51'611.8
2018-Jun-16 09:29N 32°04' W 080°58'5 9.8
2018-Jun-16 08:59N 32°05' W 081°04'4 7.6
2018-Jun-16 08:25N 32°07' W 081°08'0 0.3
2018-Jun-16 07:59N 32°07' W 081°08'0 0.2
2018-Jun-16 07:07N 32°07' W 081°08'0 0.0
2018-Jun-16 06:55N 32°07' W 081°08'0 0.0
2018-Jun-16 06:27N 32°07' W 081°08'0 0.0
2018-Jun-16 05:37N 32°07' W 081°08'0 0.0
2018-Jun-16 05:27N 32°07' W 081°08'0 0.0
2018-Jun-16 04:49N 32°07' W 081°08'0 0.0
2018-Jun-16 00:25N 32°07' W 081°08'0 0.0
2018-Jun-15 23:57N 32°07' W 081°08'0 0.0
2018-Jun-15 22:58N 32°07' W 081°08'0 0.0
2018-Jun-15 21:37N 32°07' W 081°08'0 0.0
2018-Jun-15 21:30N 32°07' W 081°08'1 2.1
2018-Jun-15 21:00N 32°06' W 081°07'3 6.0
2018-Jun-15 20:30N 32°05' W 081°04'3 6.9
2018-Jun-15 20:00N 32°06' W 081°00'4 8.3
2018-Jun-15 19:30N 32°04' W 080°57'4 8.6
2018-Jun-15 19:00N 32°02' W 080°52'612.2
2018-Jun-15 18:30N 31°59' W 080°46'610.6
2018-Jun-15 17:59N 31°57' W 080°40'4 8.9
2018-Jun-15 17:29N 31°55' W 080°35'4 7.3
2018-Jun-15 17:00N 31°53' W 080°31'611.0
2018-Jun-15 16:29N 31°55' W 080°25'612.2
2018-Jun-15 16:00N 31°58' W 080°19'814.1
2018-Jun-15 15:25N 32°01' W 080°10'54915.7
2018-Jun-14 04:27N 39°37' W 073°53'817.5
2018-Jun-14 03:59N 39°45' W 073°51'4217.3
2018-Jun-14 01:35N 40°27' W 073°49'1 9.1
2018-Jun-14 01:27N 40°27' W 073°51'715.8
2018-Jun-14 01:00N 40°31' W 073°59'713.8
2018-Jun-14 00:30N 40°37' W 074°03'3 6.9
2018-Jun-14 00:00N 40°39' W 074°07'2 4.8
2018-Jun-13 23:30N 40°39' W 074°10'1 2.2
2018-Jun-13 22:59N 40°39' W 074°11'0 0.0
2018-Jun-13 22:27N 40°39' W 074°11'0 0.0
2018-Jun-13 21:59N 40°39' W 074°11'0 0.0
2018-Jun-13 21:29N 40°39' W 074°11'0 0.0
2018-Jun-13 20:59N 40°39' W 074°11'0 0.0
2018-Jun-13 20:27N 40°39' W 074°11'0 0.0
2018-Jun-13 19:59N 40°39' W 074°11'0 0.0
2018-Jun-13 19:29N 40°39' W 074°11'0 0.0
2018-Jun-13 18:57N 40°39' W 074°11'0 0.0
2018-Jun-13 18:29N 40°39' W 074°11'0 0.0
2018-Jun-13 17:59N 40°39' W 074°11'0 0.0
2018-Jun-13 17:29N 40°39' W 074°11'0 0.0
2018-Jun-13 16:57N 40°39' W 074°11'0 0.0
2018-Jun-13 16:29N 40°39' W 074°11'0 0.0
2018-Jun-13 15:59N 40°39' W 074°11'0 0.0
2018-Jun-13 15:29N 40°39' W 074°11'0 0.0
2018-Jun-13 14:53N 40°39' W 074°11'0 0.0
2018-Jun-13 14:29N 40°39' W 074°11'0 0.0
2018-Jun-13 13:47N 40°39' W 074°11'0 0.0
2018-Jun-13 13:27N 40°39' W 074°11'0 0.0
2018-Jun-13 12:59N 40°39' W 074°11'0 0.0
2018-Jun-13 12:29N 40°39' W 074°11'0 0.0
2018-Jun-13 11:59N 40°39' W 074°11'0 0.0
2018-Jun-13 11:29N 40°39' W 074°11'0 0.0
2018-Jun-13 10:59N 40°39' W 074°11'1 1.4
2018-Jun-13 10:30N 40°39' W 074°10'4 7.5
2018-Jun-13 10:00N 40°39' W 074°05'4 8.1
2018-Jun-13 09:30N 40°36' W 074°02'511.0
2018-Jun-13 09:00N 40°31' W 073°59'611.3
2018-Jun-13 08:30N 40°28' W 073°52'3811.4
2018-Jun-13 05:11N 39°52' W 073°42'615.2
2018-Jun-13 04:49N 39°46' W 073°42'813.6
2018-Jun-13 04:14N 39°39' W 073°46'415.3
2018-Jun-13 03:58N 39°36' W 073°50'715.3
2018-Jun-13 03:29N 39°30' W 073°55'1715.5
2018-Jun-13 02:22N 39°16' W 074°08'615.7
2018-Jun-13 02:00N 39°11' W 074°12'3015.5
2018-Jun-13 00:03N 38°46' W 074°34'115.3
2018-Jun-12 23:58N 38°46' W 074°36'715.3
2018-Jun-12 23:30N 38°46' W 074°45'715.0
2018-Jun-12 23:00N 38°46' W 074°55'713.4
2018-Jun-12 22:30N 38°48' W 075°03'4 8.5
2018-Jun-12 22:00N 38°52' W 075°05'714.1
2018-Jun-12 21:29N 38°59' W 075°08'714.7
2018-Jun-12 21:01N 39°05' W 075°11'714.1
2018-Jun-12 20:30N 39°11' W 075°16'917.9
2018-Jun-12 20:00N 39°18' W 075°23'918.9
2018-Jun-12 19:30N 39°25' W 075°31'816.3
2018-Jun-12 19:00N 39°33' W 075°33'612.1
2018-Jun-12 18:31N 39°40' W 075°33'611.9
2018-Jun-12 18:00N 39°45' W 075°29'611.6
2018-Jun-12 17:30N 39°49' W 075°24'510.3
2018-Jun-12 17:00N 39°51' W 075°18'4 8.5
2018-Jun-12 16:30N 39°52' W 075°12'4 7.5
2018-Jun-12 16:00N 39°54' W 075°08'0 0.4
2018-Jun-12 15:29N 39°54' W 075°08'0 0.0
2018-Jun-12 14:57N 39°54' W 075°08'0 0.0
2018-Jun-12 14:27N 39°54' W 075°08'0 0.0
2018-Jun-12 13:59N 39°54' W 075°08'0 0.0
2018-Jun-12 13:29N 39°54' W 075°08'0 0.0
2018-Jun-12 12:59N 39°54' W 075°08'0 0.0
2018-Jun-12 12:29N 39°54' W 075°08'0 0.0
2018-Jun-12 11:58N 39°54' W 075°08'0 0.0
2018-Jun-12 11:29N 39°54' W 075°08'0 0.0
2018-Jun-12 10:58N 39°54' W 075°08'0 0.0
2018-Jun-12 10:29N 39°54' W 075°08'0 0.0
2018-Jun-12 09:59N 39°54' W 075°08'0 0.0
2018-Jun-12 09:28N 39°54' W 075°08'0 0.0
2018-Jun-12 08:58N 39°54' W 075°08'0 0.0
2018-Jun-12 08:28N 39°54' W 075°08'0 0.0
2018-Jun-12 07:59N 39°54' W 075°08'0 0.0
2018-Jun-12 07:29N 39°54' W 075°08'0 0.0
2018-Jun-12 06:58N 39°54' W 075°08'0 0.0
2018-Jun-12 06:28N 39°54' W 075°08'0 0.0
2018-Jun-12 05:58N 39°54' W 075°08'0 0.0
2018-Jun-12 05:28N 39°54' W 075°08'0 0.0
2018-Jun-12 04:59N 39°54' W 075°08'0 0.0
2018-Jun-12 04:30N 39°54' W 075°08'1 2.8
2018-Jun-12 04:00N 39°53' W 075°09'3 6.7
2018-Jun-12 03:30N 39°52' W 075°13'4 7.5
2018-Jun-12 03:00N 39°51' W 075°18'4 8.5
2018-Jun-12 02:30N 39°49' W 075°23'4 8.6
2018-Jun-12 02:00N 39°47' W 075°28'510.1
2018-Jun-12 01:30N 39°42' W 075°31'611.9
2018-Jun-12 01:00N 39°37' W 075°35'612.2
2018-Jun-12 00:30N 39°31' W 075°33'612.4
2018-Jun-12 00:01N 39°25' W 075°31'714.6
2018-Jun-11 23:30N 39°20' W 075°25'816.8
2018-Jun-11 23:00N 39°14' W 075°18'816.5
2018-Jun-11 22:30N 39°07' W 075°12'1417.8
2018-Jun-11 21:43N 38°54' W 075°05'417.5
2018-Jun-11 21:30N 38°50' W 075°04'5 8.6
2018-Jun-11 20:58N 38°46' W 075°00'  

Dump ship's entire track history